sensor_id;sensor_type;location;lat;lon;timestamp;P1;durP1;ratioP1;P2;durP2;ratioP2
62709;SDS011;48770;51.624;5.886;2024-02-14T00:02:17;1.10;;;0.80;;
62709;SDS011;48770;51.624;5.886;2024-02-14T00:04:43;1.60;;;0.73;;
62709;SDS011;48770;51.624;5.886;2024-02-14T00:07:08;0.98;;;0.63;;
62709;SDS011;48770;51.624;5.886;2024-02-14T00:09:34;0.80;;;0.60;;
62709;SDS011;48770;51.624;5.886;2024-02-14T00:11:59;0.80;;;0.60;;
62709;SDS011;48770;51.624;5.886;2024-02-14T00:14:24;0.90;;;0.60;;
62709;SDS011;48770;51.624;5.886;2024-02-14T00:16:50;0.95;;;0.52;;
62709;SDS011;48770;51.624;5.886;2024-02-14T00:19:16;1.60;;;0.90;;
62709;SDS011;48770;51.624;5.886;2024-02-14T00:21:41;1.05;;;0.70;;
62709;SDS011;48770;51.624;5.886;2024-02-14T00:24:07;1.50;;;0.70;;
62709;SDS011;48770;51.624;5.886;2024-02-14T00:26:32;1.40;;;0.60;;
62709;SDS011;48770;51.624;5.886;2024-02-14T00:28:58;1.30;;;0.73;;
62709;SDS011;48770;51.624;5.886;2024-02-14T00:31:23;1.48;;;0.63;;
62709;SDS011;48770;51.624;5.886;2024-02-14T00:33:48;1.92;;;0.52;;
62709;SDS011;48770;51.624;5.886;2024-02-14T00:36:14;0.75;;;0.60;;
62709;SDS011;48770;51.624;5.886;2024-02-14T00:38:39;0.52;;;0.45;;
62709;SDS011;48770;51.624;5.886;2024-02-14T00:41:05;1.83;;;0.47;;
62709;SDS011;48770;51.624;5.886;2024-02-14T00:43:30;1.23;;;0.50;;
62709;SDS011;48770;51.624;5.886;2024-02-14T00:45:56;1.15;;;0.70;;
62709;SDS011;48770;51.624;5.886;2024-02-14T00:48:22;0.95;;;0.60;;
62709;SDS011;48770;51.624;5.886;2024-02-14T00:50:48;0.88;;;0.60;;
62709;SDS011;48770;51.624;5.886;2024-02-14T00:53:13;1.27;;;0.73;;
62709;SDS011;48770;51.624;5.886;2024-02-14T00:55:39;2.72;;;0.63;;
62709;SDS011;48770;51.624;5.886;2024-02-14T00:58:04;1.20;;;0.70;;
62709;SDS011;48770;51.624;5.886;2024-02-14T01:00:30;1.90;;;0.50;;
62709;SDS011;48770;51.624;5.886;2024-02-14T01:02:56;1.13;;;0.60;;
62709;SDS011;48770;51.624;5.886;2024-02-14T01:05:22;1.15;;;0.68;;
62709;SDS011;48770;51.624;5.886;2024-02-14T01:07:48;1.38;;;0.57;;
62709;SDS011;48770;51.624;5.886;2024-02-14T01:10:13;1.05;;;0.50;;
62709;SDS011;48770;51.624;5.886;2024-02-14T01:12:39;2.20;;;0.77;;
62709;SDS011;48770;51.624;5.886;2024-02-14T01:15:05;2.30;;;0.60;;
62709;SDS011;48770;51.624;5.886;2024-02-14T01:17:31;1.15;;;0.60;;
62709;SDS011;48770;51.624;5.886;2024-02-14T01:19:56;0.68;;;0.52;;
62709;SDS011;48770;51.624;5.886;2024-02-14T01:22:23;0.95;;;0.52;;
62709;SDS011;48770;51.624;5.886;2024-02-14T01:24:48;1.27;;;0.60;;
62709;SDS011;48770;51.624;5.886;2024-02-14T01:27:14;1.30;;;0.60;;
62709;SDS011;48770;51.624;5.886;2024-02-14T01:29:40;0.98;;;0.55;;
62709;SDS011;48770;51.624;5.886;2024-02-14T01:32:05;1.33;;;0.68;;
62709;SDS011;48770;51.624;5.886;2024-02-14T01:34:31;2.00;;;0.60;;
62709;SDS011;48770;51.624;5.886;2024-02-14T01:36:57;1.58;;;0.60;;
62709;SDS011;48770;51.624;5.886;2024-02-14T01:39:22;1.35;;;0.60;;
62709;SDS011;48770;51.624;5.886;2024-02-14T07:30:51;1.70;;;0.60;;
62709;SDS011;48770;51.624;5.886;2024-02-14T07:33:17;0.77;;;0.60;;
62709;SDS011;48770;51.624;5.886;2024-02-14T07:35:42;2.75;;;0.55;;
62709;SDS011;48770;51.624;5.886;2024-02-14T07:38:08;1.77;;;0.47;;
62709;SDS011;48770;51.624;5.886;2024-02-14T07:40:33;1.30;;;0.35;;
62709;SDS011;48770;51.624;5.886;2024-02-14T07:42:59;1.95;;;0.60;;
62709;SDS011;48770;51.624;5.886;2024-02-14T07:45:24;1.85;;;0.40;;
62709;SDS011;48770;51.624;5.886;2024-02-14T07:47:50;7.40;;;0.70;;
62709;SDS011;48770;51.624;5.886;2024-02-14T07:50:15;0.85;;;0.40;;
62709;SDS011;48770;51.624;5.886;2024-02-14T07:52:44;1.30;;;0.50;;
62709;SDS011;48770;51.624;5.886;2024-02-14T07:55:10;2.72;;;0.35;;
62709;SDS011;48770;51.624;5.886;2024-02-14T07:57:37;1.05;;;0.45;;
62709;SDS011;48770;51.624;5.886;2024-02-14T08:00:04;1.10;;;0.65;;
62709;SDS011;48770;51.624;5.886;2024-02-14T08:02:30;1.25;;;0.30;;
62709;SDS011;48770;51.624;5.886;2024-02-14T08:04:56;1.00;;;0.40;;
62709;SDS011;48770;51.624;5.886;2024-02-14T08:07:21;2.95;;;0.40;;
62709;SDS011;48770;51.624;5.886;2024-02-14T08:09:46;1.50;;;0.50;;
62709;SDS011;48770;51.624;5.886;2024-02-14T08:12:12;1.90;;;0.60;;
62709;SDS011;48770;51.624;5.886;2024-02-14T08:14:37;1.30;;;0.63;;
62709;SDS011;48770;51.624;5.886;2024-02-14T08:17:03;1.00;;;0.52;;
62709;SDS011;48770;51.624;5.886;2024-02-14T08:19:28;3.95;;;0.60;;
62709;SDS011;48770;51.624;5.886;2024-02-14T08:21:54;1.42;;;0.70;;
62709;SDS011;48770;51.624;5.886;2024-02-14T08:24:24;0.80;;;0.30;;
62709;SDS011;48770;51.624;5.886;2024-02-14T08:26:52;0.85;;;0.47;;
62709;SDS011;48770;51.624;5.886;2024-02-14T08:29:18;0.82;;;0.50;;
62709;SDS011;48770;51.624;5.886;2024-02-14T08:31:44;0.70;;;0.50;;
62709;SDS011;48770;51.624;5.886;2024-02-14T08:34:09;1.17;;;0.50;;
62709;SDS011;48770;51.624;5.886;2024-02-14T08:36:34;1.88;;;0.40;;
62709;SDS011;48770;51.624;5.886;2024-02-14T08:39:06;0.80;;;0.50;;
62709;SDS011;48770;51.624;5.886;2024-02-14T08:41:32;0.93;;;0.50;;
62709;SDS011;48770;51.624;5.886;2024-02-14T08:43:57;1.95;;;0.60;;
62709;SDS011;48770;51.624;5.886;2024-02-14T08:46:23;0.98;;;0.50;;
62709;SDS011;48770;51.624;5.886;2024-02-14T08:48:50;1.48;;;0.57;;
62709;SDS011;48770;51.624;5.886;2024-02-14T08:51:16;0.82;;;0.50;;
62709;SDS011;48770;51.624;5.886;2024-02-14T08:53:45;0.80;;;0.50;;
62709;SDS011;48770;51.624;5.886;2024-02-14T08:56:10;0.85;;;0.35;;
62709;SDS011;48770;51.624;5.886;2024-02-14T08:58:36;1.50;;;0.57;;
62709;SDS011;48770;51.624;5.886;2024-02-14T09:01:01;1.02;;;0.45;;
62709;SDS011;48770;51.624;5.886;2024-02-14T09:03:27;1.20;;;0.50;;
62709;SDS011;48770;51.624;5.886;2024-02-14T09:05:52;0.77;;;0.60;;
62709;SDS011;48770;51.624;5.886;2024-02-14T09:08:18;1.20;;;0.50;;
62709;SDS011;48770;51.624;5.886;2024-02-14T09:10:45;2.70;;;0.50;;
62709;SDS011;48770;51.624;5.886;2024-02-14T09:13:11;0.70;;;0.40;;
62709;SDS011;48770;51.624;5.886;2024-02-14T09:15:37;0.80;;;0.43;;
62709;SDS011;48770;51.624;5.886;2024-02-14T09:18:02;1.10;;;0.45;;
62709;SDS011;48770;51.624;5.886;2024-02-14T09:20:28;0.90;;;0.60;;
62709;SDS011;48770;51.624;5.886;2024-02-14T09:22:54;1.08;;;0.73;;
62709;SDS011;48770;51.624;5.886;2024-02-14T09:25:20;1.40;;;0.60;;
62709;SDS011;48770;51.624;5.886;2024-02-14T09:27:48;1.58;;;0.60;;
62709;SDS011;48770;51.624;5.886;2024-02-14T09:30:13;0.75;;;0.50;;
62709;SDS011;48770;51.624;5.886;2024-02-14T09:32:39;0.90;;;0.40;;
62709;SDS011;48770;51.624;5.886;2024-02-14T09:35:04;1.33;;;0.50;;
62709;SDS011;48770;51.624;5.886;2024-02-14T09:37:32;1.98;;;0.40;;
62709;SDS011;48770;51.624;5.886;2024-02-14T09:39:57;1.08;;;0.40;;
62709;SDS011;48770;51.624;5.886;2024-02-14T09:42:27;0.80;;;0.60;;
62709;SDS011;48770;51.624;5.886;2024-02-14T09:44:59;1.70;;;0.75;;
62709;SDS011;48770;51.624;5.886;2024-02-14T09:47:27;2.35;;;0.50;;
62709;SDS011;48770;51.624;5.886;2024-02-14T09:49:57;1.08;;;0.50;;
62709;SDS011;48770;51.624;5.886;2024-02-14T09:52:24;0.63;;;0.40;;
62709;SDS011;48770;51.624;5.886;2024-02-14T09:54:51;2.03;;;0.55;;
62709;SDS011;48770;51.624;5.886;2024-02-14T09:57:17;2.03;;;0.68;;
62709;SDS011;48770;51.624;5.886;2024-02-14T09:59:43;1.40;;;0.60;;
62709;SDS011;48770;51.624;5.886;2024-02-14T10:02:09;1.42;;;0.80;;
62709;SDS011;48770;51.624;5.886;2024-02-14T10:04:36;1.42;;;0.52;;
62709;SDS011;48770;51.624;5.886;2024-02-14T10:07:03;0.90;;;0.50;;
62709;SDS011;48770;51.624;5.886;2024-02-14T10:09:29;1.52;;;0.70;;
62709;SDS011;48770;51.624;5.886;2024-02-14T10:11:55;0.95;;;0.57;;
62709;SDS011;48770;51.624;5.886;2024-02-14T10:14:22;1.15;;;0.63;;
62709;SDS011;48770;51.624;5.886;2024-02-14T10:16:49;1.92;;;0.70;;
62709;SDS011;48770;51.624;5.886;2024-02-14T10:19:14;0.60;;;0.47;;
62709;SDS011;48770;51.624;5.886;2024-02-14T10:21:43;0.80;;;0.40;;
62709;SDS011;48770;51.624;5.886;2024-02-14T10:24:09;2.60;;;0.68;;
62709;SDS011;48770;51.624;5.886;2024-02-14T10:26:36;0.82;;;0.50;;
62709;SDS011;48770;51.624;5.886;2024-02-14T10:29:02;1.23;;;0.60;;
62709;SDS011;48770;51.624;5.886;2024-02-14T10:31:27;1.15;;;0.70;;
62709;SDS011;48770;51.624;5.886;2024-02-14T10:33:56;8.40;;;0.80;;
62709;SDS011;48770;51.624;5.886;2024-02-14T10:36:22;0.60;;;0.50;;
62709;SDS011;48770;51.624;5.886;2024-02-14T10:38:47;1.50;;;0.70;;
62709;SDS011;48770;51.624;5.886;2024-02-14T10:41:15;1.98;;;0.70;;
62709;SDS011;48770;51.624;5.886;2024-02-14T10:43:42;2.20;;;0.73;;
62709;SDS011;48770;51.624;5.886;2024-02-14T10:46:12;3.15;;;0.73;;
62709;SDS011;48770;51.624;5.886;2024-02-14T10:48:52;1.23;;;0.50;;
62709;SDS011;48770;51.624;5.886;2024-02-14T10:51:19;0.70;;;0.70;;
62709;SDS011;48770;51.624;5.886;2024-02-14T10:53:46;1.70;;;0.57;;
62709;SDS011;48770;51.624;5.886;2024-02-14T10:56:17;1.55;;;0.60;;
62709;SDS011;48770;51.624;5.886;2024-02-14T10:58:45;1.30;;;0.68;;
62709;SDS011;48770;51.624;5.886;2024-02-14T11:01:12;1.40;;;0.65;;
62709;SDS011;48770;51.624;5.886;2024-02-14T11:03:40;2.03;;;0.70;;
62709;SDS011;48770;51.624;5.886;2024-02-14T11:06:06;1.58;;;0.70;;
62709;SDS011;48770;51.624;5.886;2024-02-14T11:08:31;2.88;;;0.50;;
62709;SDS011;48770;51.624;5.886;2024-02-14T11:10:58;2.05;;;0.60;;
62709;SDS011;48770;51.624;5.886;2024-02-14T11:13:35;1.48;;;0.80;;
62709;SDS011;48770;51.624;5.886;2024-02-14T11:16:01;1.52;;;0.73;;
62709;SDS011;48770;51.624;5.886;2024-02-14T11:18:30;0.82;;;0.68;;
62709;SDS011;48770;51.624;5.886;2024-02-14T11:20:56;1.67;;;0.63;;
62709;SDS011;48770;51.624;5.886;2024-02-14T11:23:24;1.17;;;0.65;;
62709;SDS011;48770;51.624;5.886;2024-02-14T11:25:58;0.68;;;0.57;;
62709;SDS011;48770;51.624;5.886;2024-02-14T11:28:24;1.10;;;0.73;;
62709;SDS011;48770;51.624;5.886;2024-02-14T11:30:51;0.95;;;0.60;;
62709;SDS011;48770;51.624;5.886;2024-02-14T11:33:17;1.02;;;0.50;;
62709;SDS011;48770;51.624;5.886;2024-02-14T11:35:47;2.20;;;0.60;;
62709;SDS011;48770;51.624;5.886;2024-02-14T11:38:18;1.38;;;0.70;;
62709;SDS011;48770;51.624;5.886;2024-02-14T11:40:55;1.00;;;0.60;;
62709;SDS011;48770;51.624;5.886;2024-02-14T11:43:23;1.00;;;0.60;;
62709;SDS011;48770;51.624;5.886;2024-02-14T11:45:49;0.95;;;0.50;;
62709;SDS011;48770;51.624;5.886;2024-02-14T11:48:17;1.27;;;0.50;;
62709;SDS011;48770;51.624;5.886;2024-02-14T11:50:44;1.92;;;0.82;;
62709;SDS011;48770;51.624;5.886;2024-02-14T11:53:10;2.63;;;0.68;;
62709;SDS011;48770;51.624;5.886;2024-02-14T11:55:37;0.93;;;0.50;;
62709;SDS011;48770;51.624;5.886;2024-02-14T11:58:21;1.55;;;0.50;;
62709;SDS011;48770;51.624;5.886;2024-02-14T12:00:46;2.55;;;0.50;;
62709;SDS011;48770;51.624;5.886;2024-02-14T12:03:16;0.98;;;0.63;;
62709;SDS011;48770;51.624;5.886;2024-02-14T12:08:12;1.02;;;0.50;;
62709;SDS011;48770;51.624;5.886;2024-02-14T12:10:38;0.98;;;0.40;;
62709;SDS011;48770;51.624;5.886;2024-02-14T12:13:07;0.70;;;0.40;;
62709;SDS011;48770;51.624;5.886;2024-02-14T12:16:07;0.90;;;0.45;;
62709;SDS011;48770;51.624;5.886;2024-02-14T12:18:25;10.23;;;0.50;;
62709;SDS011;48770;51.624;5.886;2024-02-14T12:20:51;1.15;;;0.50;;
62709;SDS011;48770;51.624;5.886;2024-02-14T12:23:17;0.40;;;0.22;;
62709;SDS011;48770;51.624;5.886;2024-02-14T12:25:43;0.75;;;0.25;;
62709;SDS011;48770;51.624;5.886;2024-02-14T12:28:20;0.95;;;0.32;;
62709;SDS011;48770;51.624;5.886;2024-02-14T12:30:46;0.55;;;0.30;;
62709;SDS011;48770;51.624;5.886;2024-02-14T12:33:21;0.47;;;0.30;;
62709;SDS011;48770;51.624;5.886;2024-02-14T12:35:47;1.05;;;0.50;;
62709;SDS011;48770;51.624;5.886;2024-02-14T12:38:13;0.82;;;0.30;;
62709;SDS011;48770;51.624;5.886;2024-02-14T12:40:41;0.77;;;0.30;;
62709;SDS011;48770;51.624;5.886;2024-02-14T12:43:07;0.50;;;0.30;;
62709;SDS011;48770;51.624;5.886;2024-02-14T12:45:33;0.85;;;0.25;;
62709;SDS011;48770;51.624;5.886;2024-02-14T12:47:59;0.70;;;0.28;;
62709;SDS011;48770;51.624;5.886;2024-02-14T12:50:25;2.08;;;0.30;;
62709;SDS011;48770;51.624;5.886;2024-02-14T12:52:51;0.80;;;0.32;;
62709;SDS011;48770;51.624;5.886;2024-02-14T12:55:17;0.43;;;0.30;;
62709;SDS011;48770;51.624;5.886;2024-02-14T12:57:43;0.32;;;0.30;;
62709;SDS011;48770;51.624;5.886;2024-02-14T13:00:09;0.30;;;0.20;;
62709;SDS011;48770;51.624;5.886;2024-02-14T13:02:35;0.95;;;0.50;;
62709;SDS011;48770;51.624;5.886;2024-02-14T13:05:01;0.82;;;0.20;;
62709;SDS011;48770;51.624;5.886;2024-02-14T13:07:30;0.65;;;0.30;;
62709;SDS011;48770;51.624;5.886;2024-02-14T13:09:56;0.50;;;0.30;;
62709;SDS011;48770;51.624;5.886;2024-02-14T13:12:21;0.52;;;0.32;;
62709;SDS011;48770;51.624;5.886;2024-02-14T13:14:47;0.15;;;0.15;;
62709;SDS011;48770;51.624;5.886;2024-02-14T13:17:12;0.55;;;0.25;;
62709;SDS011;48770;51.624;5.886;2024-02-14T13:19:39;1.02;;;0.30;;
62709;SDS011;48770;51.624;5.886;2024-02-14T13:22:04;0.75;;;0.38;;
62709;SDS011;48770;51.624;5.886;2024-02-14T13:24:30;1.75;;;0.30;;
62709;SDS011;48770;51.624;5.886;2024-02-14T13:26:56;0.60;;;0.30;;
62709;SDS011;48770;51.624;5.886;2024-02-14T13:29:22;0.77;;;0.68;;
62709;SDS011;48770;51.624;5.886;2024-02-14T13:31:49;2.28;;;0.40;;
62709;SDS011;48770;51.624;5.886;2024-02-14T13:34:15;0.30;;;0.20;;
62709;SDS011;48770;51.624;5.886;2024-02-14T13:36:43;0.68;;;0.47;;
62709;SDS011;48770;51.624;5.886;2024-02-14T13:39:09;0.50;;;0.25;;
62709;SDS011;48770;51.624;5.886;2024-02-14T13:41:34;0.47;;;0.30;;
62709;SDS011;48770;51.624;5.886;2024-02-14T13:44:02;1.13;;;0.22;;
62709;SDS011;48770;51.624;5.886;2024-02-14T13:46:28;0.20;;;0.20;;
62709;SDS011;48770;51.624;5.886;2024-02-14T13:48:54;0.57;;;0.10;;
62709;SDS011;48770;51.624;5.886;2024-02-14T13:51:19;1.58;;;0.63;;
62709;SDS011;48770;51.624;5.886;2024-02-14T13:53:45;0.77;;;0.30;;
62709;SDS011;48770;51.624;5.886;2024-02-14T13:56:10;0.73;;;0.22;;
62709;SDS011;48770;51.624;5.886;2024-02-14T13:58:36;0.38;;;0.30;;
62709;SDS011;48770;51.624;5.886;2024-02-14T14:01:03;0.85;;;0.20;;
62709;SDS011;48770;51.624;5.886;2024-02-14T14:03:29;0.38;;;0.28;;
62709;SDS011;48770;51.624;5.886;2024-02-14T14:05:55;0.30;;;0.20;;
62709;SDS011;48770;51.624;5.886;2024-02-14T14:08:22;0.38;;;0.22;;
62709;SDS011;48770;51.624;5.886;2024-02-14T14:10:48;0.30;;;0.20;;
62709;SDS011;48770;51.624;5.886;2024-02-14T14:13:13;0.20;;;0.20;;
62709;SDS011;48770;51.624;5.886;2024-02-14T14:15:39;1.02;;;0.20;;
62709;SDS011;48770;51.624;5.886;2024-02-14T14:18:06;0.95;;;0.38;;
62709;SDS011;48770;51.624;5.886;2024-02-14T14:20:33;0.45;;;0.30;;
62709;SDS011;48770;51.624;5.886;2024-02-14T14:22:59;0.60;;;0.22;;
62709;SDS011;48770;51.624;5.886;2024-02-14T14:25:25;0.63;;;0.20;;
62709;SDS011;48770;51.624;5.886;2024-02-14T14:27:52;0.30;;;0.15;;
62709;SDS011;48770;51.624;5.886;2024-02-14T14:30:18;1.40;;;0.20;;
62709;SDS011;48770;51.624;5.886;2024-02-14T14:32:44;0.50;;;0.20;;
62709;SDS011;48770;51.624;5.886;2024-02-14T14:35:09;0.55;;;0.20;;
62709;SDS011;48770;51.624;5.886;2024-02-14T14:37:37;0.40;;;0.20;;
62709;SDS011;48770;51.624;5.886;2024-02-14T14:40:03;0.68;;;0.38;;
62709;SDS011;48770;51.624;5.886;2024-02-14T14:42:30;0.40;;;0.20;;
62709;SDS011;48770;51.624;5.886;2024-02-14T14:44:55;0.45;;;0.20;;
62709;SDS011;48770;51.624;5.886;2024-02-14T14:47:20;0.30;;;0.30;;
62709;SDS011;48770;51.624;5.886;2024-02-14T14:49:48;0.75;;;0.30;;
62709;SDS011;48770;51.624;5.886;2024-02-14T14:52:13;0.30;;;0.28;;
62709;SDS011;48770;51.624;5.886;2024-02-14T14:54:38;0.65;;;0.10;;
62709;SDS011;48770;51.624;5.886;2024-02-14T14:57:04;0.50;;;0.20;;
62709;SDS011;48770;51.624;5.886;2024-02-14T14:59:34;0.20;;;0.17;;
62709;SDS011;48770;51.624;5.886;2024-02-14T15:02:00;0.63;;;0.20;;
62709;SDS011;48770;51.624;5.886;2024-02-14T15:04:27;0.30;;;0.20;;
62709;SDS011;48770;51.624;5.886;2024-02-14T15:06:52;0.10;;;0.10;;
62709;SDS011;48770;51.624;5.886;2024-02-14T15:09:19;0.17;;;0.17;;
62709;SDS011;48770;51.624;5.886;2024-02-14T15:11:45;0.57;;;0.40;;
62709;SDS011;48770;51.624;5.886;2024-02-14T15:14:10;1.20;;;0.20;;
62709;SDS011;48770;51.624;5.886;2024-02-14T15:16:36;0.15;;;0.10;;
62709;SDS011;48770;51.624;5.886;2024-02-14T15:19:01;0.20;;;0.10;;
62709;SDS011;48770;51.624;5.886;2024-02-14T15:21:27;0.52;;;0.20;;
62709;SDS011;48770;51.624;5.886;2024-02-14T15:23:52;0.50;;;0.25;;
62709;SDS011;48770;51.624;5.886;2024-02-14T15:26:17;0.32;;;0.20;;
62709;SDS011;48770;51.624;5.886;2024-02-14T15:28:43;0.60;;;0.17;;
62709;SDS011;48770;51.624;5.886;2024-02-14T15:31:10;0.68;;;0.30;;
62709;SDS011;48770;51.624;5.886;2024-02-14T15:33:54;0.55;;;0.43;;
62709;SDS011;48770;51.624;5.886;2024-02-14T15:36:20;0.43;;;0.20;;
62709;SDS011;48770;51.624;5.886;2024-02-14T15:38:46;0.20;;;0.20;;
62709;SDS011;48770;51.624;5.886;2024-02-14T15:41:12;0.90;;;0.50;;
62709;SDS011;48770;51.624;5.886;2024-02-14T15:43:38;0.50;;;0.30;;
62709;SDS011;48770;51.624;5.886;2024-02-14T15:46:08;0.50;;;0.30;;
62709;SDS011;48770;51.624;5.886;2024-02-14T15:48:34;0.85;;;0.30;;
62709;SDS011;48770;51.624;5.886;2024-02-14T15:50:59;1.88;;;0.20;;
62709;SDS011;48770;51.624;5.886;2024-02-14T15:53:25;0.50;;;0.20;;
62709;SDS011;48770;51.624;5.886;2024-02-14T15:55:52;0.30;;;0.20;;
62709;SDS011;48770;51.624;5.886;2024-02-14T15:58:17;0.10;;;0.10;;
62709;SDS011;48770;51.624;5.886;2024-02-14T16:00:43;0.40;;;0.40;;
62709;SDS011;48770;51.624;5.886;2024-02-14T16:03:08;0.30;;;0.22;;
62709;SDS011;48770;51.624;5.886;2024-02-14T16:05:35;0.38;;;0.20;;
62709;SDS011;48770;51.624;5.886;2024-02-14T16:08:00;0.40;;;0.20;;
62709;SDS011;48770;51.624;5.886;2024-02-14T16:10:26;0.80;;;0.30;;
62709;SDS011;48770;51.624;5.886;2024-02-14T16:12:52;1.67;;;0.45;;
62709;SDS011;48770;51.624;5.886;2024-02-14T16:15:18;0.22;;;0.20;;
62709;SDS011;48770;51.624;5.886;2024-02-14T16:17:43;0.28;;;0.20;;
62709;SDS011;48770;51.624;5.886;2024-02-14T16:20:09;0.25;;;0.20;;
62709;SDS011;48770;51.624;5.886;2024-02-14T16:22:36;0.50;;;0.38;;
62709;SDS011;48770;51.624;5.886;2024-02-14T16:25:02;0.43;;;0.30;;
62709;SDS011;48770;51.624;5.886;2024-02-14T16:27:28;0.52;;;0.25;;
62709;SDS011;48770;51.624;5.886;2024-02-14T16:29:54;0.65;;;0.40;;
62709;SDS011;48770;51.624;5.886;2024-02-14T16:32:20;0.40;;;0.30;;
62709;SDS011;48770;51.624;5.886;2024-02-14T16:34:45;0.30;;;0.20;;
62709;SDS011;48770;51.624;5.886;2024-02-14T16:37:13;0.40;;;0.25;;
62709;SDS011;48770;51.624;5.886;2024-02-14T16:39:42;0.38;;;0.20;;
62709;SDS011;48770;51.624;5.886;2024-02-14T16:42:08;0.40;;;0.30;;
62709;SDS011;48770;51.624;5.886;2024-02-14T16:44:34;0.30;;;0.30;;
62709;SDS011;48770;51.624;5.886;2024-02-14T16:47:01;0.40;;;0.20;;
62709;SDS011;48770;51.624;5.886;2024-02-14T16:49:26;1.13;;;0.40;;
62709;SDS011;48770;51.624;5.886;2024-02-14T16:51:52;0.60;;;0.20;;
62709;SDS011;48770;51.624;5.886;2024-02-14T16:54:17;0.55;;;0.20;;
62709;SDS011;48770;51.624;5.886;2024-02-14T16:56:43;0.65;;;0.30;;
62709;SDS011;48770;51.624;5.886;2024-02-14T16:59:08;0.50;;;0.20;;
62709;SDS011;48770;51.624;5.886;2024-02-14T17:01:34;1.08;;;0.30;;
62709;SDS011;48770;51.624;5.886;2024-02-14T17:04:00;0.57;;;0.32;;
62709;SDS011;48770;51.624;5.886;2024-02-14T17:06:26;0.60;;;0.40;;
62709;SDS011;48770;51.624;5.886;2024-02-14T17:08:51;0.40;;;0.25;;
62709;SDS011;48770;51.624;5.886;2024-02-14T17:11:17;0.25;;;0.13;;
62709;SDS011;48770;51.624;5.886;2024-02-14T17:13:42;0.30;;;0.20;;
62709;SDS011;48770;51.624;5.886;2024-02-14T17:16:09;0.50;;;0.40;;
62709;SDS011;48770;51.624;5.886;2024-02-14T17:18:35;1.30;;;0.10;;
62709;SDS011;48770;51.624;5.886;2024-02-14T17:21:00;0.93;;;0.30;;
62709;SDS011;48770;51.624;5.886;2024-02-14T17:23:26;0.65;;;0.40;;
62709;SDS011;48770;51.624;5.886;2024-02-14T17:25:51;1.35;;;0.30;;
62709;SDS011;48770;51.624;5.886;2024-02-14T17:28:19;0.20;;;0.20;;
62709;SDS011;48770;51.624;5.886;2024-02-14T17:30:44;0.70;;;0.38;;
62709;SDS011;48770;51.624;5.886;2024-02-14T17:33:09;0.50;;;0.35;;
62709;SDS011;48770;51.624;5.886;2024-02-14T17:35:35;1.33;;;0.40;;
62709;SDS011;48770;51.624;5.886;2024-02-14T17:38:01;0.95;;;0.40;;
62709;SDS011;48770;51.624;5.886;2024-02-14T17:40:26;0.30;;;0.30;;
62709;SDS011;48770;51.624;5.886;2024-02-14T17:42:52;0.60;;;0.38;;
62709;SDS011;48770;51.624;5.886;2024-02-14T17:45:17;0.85;;;0.50;;
62709;SDS011;48770;51.624;5.886;2024-02-14T17:47:43;0.60;;;0.40;;
62709;SDS011;48770;51.624;5.886;2024-02-14T17:50:09;0.77;;;0.50;;
62709;SDS011;48770;51.624;5.886;2024-02-14T17:52:36;0.90;;;0.60;;
62709;SDS011;48770;51.624;5.886;2024-02-14T17:55:03;0.70;;;0.40;;
62709;SDS011;48770;51.624;5.886;2024-02-14T17:57:29;0.95;;;0.55;;
62709;SDS011;48770;51.624;5.886;2024-02-14T17:59:55;0.57;;;0.28;;
62709;SDS011;48770;51.624;5.886;2024-02-14T18:02:20;0.60;;;0.50;;
62709;SDS011;48770;51.624;5.886;2024-02-14T18:04:47;0.50;;;0.30;;
62709;SDS011;48770;51.624;5.886;2024-02-14T18:07:12;0.57;;;0.40;;
62709;SDS011;48770;51.624;5.886;2024-02-14T18:09:38;0.73;;;0.40;;
62709;SDS011;48770;51.624;5.886;2024-02-14T18:12:03;0.45;;;0.28;;
62709;SDS011;48770;51.624;5.886;2024-02-14T18:14:30;0.63;;;0.35;;
62709;SDS011;48770;51.624;5.886;2024-02-14T18:16:57;1.33;;;0.60;;
62709;SDS011;48770;51.624;5.886;2024-02-14T18:19:23;0.90;;;0.50;;
62709;SDS011;48770;51.624;5.886;2024-02-14T18:21:49;1.23;;;0.50;;
62709;SDS011;48770;51.624;5.886;2024-02-14T18:24:14;0.43;;;0.40;;
62709;SDS011;48770;51.624;5.886;2024-02-14T18:26:39;0.82;;;0.38;;
62709;SDS011;48770;51.624;5.886;2024-02-14T18:29:06;1.00;;;0.50;;
62709;SDS011;48770;51.624;5.886;2024-02-14T18:31:32;0.85;;;0.50;;
62709;SDS011;48770;51.624;5.886;2024-02-14T18:33:58;0.50;;;0.40;;
62709;SDS011;48770;51.624;5.886;2024-02-14T18:36:24;0.80;;;0.60;;
62709;SDS011;48770;51.624;5.886;2024-02-14T18:38:50;1.23;;;0.60;;
62709;SDS011;48770;51.624;5.886;2024-02-14T18:41:17;1.30;;;0.70;;
62709;SDS011;48770;51.624;5.886;2024-02-14T18:43:43;1.10;;;0.63;;
62709;SDS011;48770;51.624;5.886;2024-02-14T18:46:08;1.95;;;0.63;;
62709;SDS011;48770;51.624;5.886;2024-02-14T18:48:33;0.43;;;0.43;;
62709;SDS011;48770;51.624;5.886;2024-02-14T18:51:02;1.20;;;0.60;;
62709;SDS011;48770;51.624;5.886;2024-02-14T18:53:27;0.95;;;0.60;;
62709;SDS011;48770;51.624;5.886;2024-02-14T18:55:53;1.63;;;0.57;;
62709;SDS011;48770;51.624;5.886;2024-02-14T18:58:20;1.08;;;0.60;;
62709;SDS011;48770;51.624;5.886;2024-02-14T19:00:46;1.23;;;0.50;;
62709;SDS011;48770;51.624;5.886;2024-02-14T19:03:11;1.52;;;0.68;;
62709;SDS011;48770;51.624;5.886;2024-02-14T19:05:36;1.23;;;0.70;;
62709;SDS011;48770;51.624;5.886;2024-02-14T19:08:02;0.60;;;0.47;;
62709;SDS011;48770;51.624;5.886;2024-02-14T19:10:28;1.23;;;0.70;;
62709;SDS011;48770;51.624;5.886;2024-02-14T19:12:53;1.55;;;0.70;;
62709;SDS011;48770;51.624;5.886;2024-02-14T19:15:19;1.38;;;0.80;;
62709;SDS011;48770;51.624;5.886;2024-02-14T19:17:45;1.13;;;0.63;;
62709;SDS011;48770;51.624;5.886;2024-02-14T19:20:10;1.17;;;0.60;;
62709;SDS011;48770;51.624;5.886;2024-02-14T19:22:36;1.02;;;0.65;;
62709;SDS011;48770;51.624;5.886;2024-02-14T19:25:02;0.85;;;0.60;;
62709;SDS011;48770;51.624;5.886;2024-02-14T19:27:27;0.98;;;0.70;;
62709;SDS011;48770;51.624;5.886;2024-02-14T19:29:53;0.95;;;0.47;;
62709;SDS011;48770;51.624;5.886;2024-02-14T19:32:19;1.02;;;0.68;;
62709;SDS011;48770;51.624;5.886;2024-02-14T19:34:45;1.17;;;0.68;;
62709;SDS011;48770;51.624;5.886;2024-02-14T19:37:10;1.15;;;0.80;;
62709;SDS011;48770;51.624;5.886;2024-02-14T19:39:35;1.08;;;0.68;;
62709;SDS011;48770;51.624;5.886;2024-02-14T19:42:02;0.98;;;0.77;;
62709;SDS011;48770;51.624;5.886;2024-02-14T19:44:28;0.90;;;0.70;;
62709;SDS011;48770;51.624;5.886;2024-02-14T19:46:53;1.25;;;0.70;;
62709;SDS011;48770;51.624;5.886;2024-02-14T19:49:19;1.65;;;0.75;;
62709;SDS011;48770;51.624;5.886;2024-02-14T19:51:45;1.33;;;0.75;;
62709;SDS011;48770;51.624;5.886;2024-02-14T19:54:11;2.30;;;0.70;;
62709;SDS011;48770;51.624;5.886;2024-02-14T19:56:37;1.48;;;0.82;;
62709;SDS011;48770;51.624;5.886;2024-02-14T19:59:03;1.80;;;0.80;;
62709;SDS011;48770;51.624;5.886;2024-02-14T20:01:28;1.33;;;0.70;;
62709;SDS011;48770;51.624;5.886;2024-02-14T20:03:54;1.50;;;0.90;;
62709;SDS011;48770;51.624;5.886;2024-02-14T20:06:22;0.85;;;0.70;;
62709;SDS011;48770;51.624;5.886;2024-02-14T20:08:47;1.35;;;0.80;;
62709;SDS011;48770;51.624;5.886;2024-02-14T20:11:13;1.42;;;0.90;;
62709;SDS011;48770;51.624;5.886;2024-02-14T20:13:39;1.48;;;0.90;;
62709;SDS011;48770;51.624;5.886;2024-02-14T20:16:05;1.50;;;0.98;;
62709;SDS011;48770;51.624;5.886;2024-02-14T20:18:32;2.65;;;1.13;;
62709;SDS011;48770;51.624;5.886;2024-02-14T20:20:58;1.35;;;0.73;;
62709;SDS011;48770;51.624;5.886;2024-02-14T20:23:23;1.25;;;0.90;;
62709;SDS011;48770;51.624;5.886;2024-02-14T20:25:48;1.00;;;0.73;;
62709;SDS011;48770;51.624;5.886;2024-02-14T20:28:14;1.08;;;0.75;;
62709;SDS011;48770;51.624;5.886;2024-02-14T20:30:41;2.08;;;1.00;;
62709;SDS011;48770;51.624;5.886;2024-02-14T20:33:06;1.95;;;1.10;;
62709;SDS011;48770;51.624;5.886;2024-02-14T20:35:32;1.50;;;1.02;;